createdAt,value
2023-03-29T00:00:08.643Z,99167.90
2023-03-29T00:02:39.044Z,99171.39
2023-03-29T00:05:06.832Z,99175.54
2023-03-29T00:07:54.208Z,99173.29
2023-03-29T00:10:24.212Z,99175.52
2023-03-29T00:12:52.675Z,99170.35
2023-03-29T00:15:21.949Z,99165.20
2023-03-29T00:17:48.762Z,99168.21
2023-03-29T00:20:16.714Z,99163.65
2023-03-29T00:22:44.442Z,99167.08
2023-03-29T00:25:12.810Z,99168.00
2023-03-29T00:27:40.392Z,99169.09
2023-03-29T00:30:10.198Z,99170.13
2023-03-29T00:32:37.885Z,99168.62
2023-03-29T00:35:06.531Z,99167.65
2023-03-29T00:37:33.396Z,99168.25
2023-03-29T00:40:00.637Z,99172.23
2023-03-29T00:42:27.515Z,99166.89
2023-03-29T00:45:04.461Z,99166.29
2023-03-29T00:47:46.681Z,99168.52
2023-03-29T00:50:22.460Z,99166.58
2023-03-29T00:52:56.736Z,99162.42
2023-03-29T00:55:27.847Z,99161.89
2023-03-29T00:57:57.333Z,99164.88
2023-03-29T01:00:31.976Z,99164.18
2023-03-29T01:03:01.675Z,99168.61
2023-03-29T01:05:34.382Z,99167.18
2023-03-29T01:08:06.783Z,99163.41
2023-03-29T01:10:41.589Z,99158.70
2023-03-29T01:13:13.053Z,99159.29
2023-03-29T01:15:44.216Z,99157.41
2023-03-29T01:18:11.847Z,99152.44
2023-03-29T01:20:56.961Z,99151.58
2023-03-29T01:23:52.874Z,99148.16
2023-03-29T01:26:36.239Z,99144.32
2023-03-29T01:29:12.691Z,99138.83
2023-03-29T01:31:53.542Z,99139.80
2023-03-29T01:34:36.708Z,99141.68
2023-03-29T01:37:17.300Z,99141.41
2023-03-29T01:39:44.238Z,99138.64
2023-03-29T01:42:31.121Z,99136.67
2023-03-29T01:45:11.658Z,99135.21
2023-03-29T01:47:48.431Z,99134.00
2023-03-29T01:50:24.145Z,99136.16
2023-03-29T01:52:59.815Z,99135.54
2023-03-29T01:55:35.291Z,99136.27
2023-03-29T01:58:05.656Z,99136.19
2023-03-29T02:00:34.968Z,99138.71
2023-03-29T02:03:07.032Z,99136.79
2023-03-29T02:05:35.108Z,99139.05
2023-03-29T02:08:05.403Z,99135.55
2023-03-29T02:10:34.124Z,99130.65
2023-03-29T02:13:01.500Z,99133.11
2023-03-29T02:15:28.283Z,99130.84
2023-03-29T02:17:57.225Z,99126.38
2023-03-29T02:20:27.150Z,99125.48
2023-03-29T02:23:09.412Z,99130.20
2023-03-29T02:25:37.979Z,99132.14
2023-03-29T02:28:07.009Z,99133.34
2023-03-29T02:30:44.549Z,99131.52
2023-03-29T02:33:18.498Z,99132.73
2023-03-29T02:35:53.446Z,99131.39
2023-03-29T02:38:25.615Z,99126.91
2023-03-29T02:40:53.127Z,99124.45
2023-03-29T02:43:22.656Z,99129.27
2023-03-29T02:45:52.101Z,99133.52
2023-03-29T02:48:23.544Z,99138.52
2023-03-29T02:50:54.735Z,99142.81
2023-03-29T02:53:28.255Z,99141.55
2023-03-29T02:55:55.610Z,99142.88
2023-03-29T02:58:26.677Z,99139.25
2023-03-29T03:00:53.959Z,99143.73
2023-03-29T03:03:20.919Z,99143.62
2023-03-29T03:05:49.438Z,99142.41
2023-03-29T03:08:16.436Z,99142.40
2023-03-29T03:10:43.286Z,99140.98
2023-03-29T03:13:11.403Z,99140.70
2023-03-29T03:15:41.198Z,99141.92
2023-03-29T03:18:09.593Z,99142.49
2023-03-29T03:20:36.553Z,99146.08
2023-03-29T03:23:03.674Z,99149.35
2023-03-29T03:25:31.795Z,99148.30
2023-03-29T03:27:59.162Z,99149.52
2023-03-29T03:30:26.540Z,99151.67
2023-03-29T03:32:56.703Z,99148.80
2023-03-29T03:35:39.308Z,99147.37
2023-03-29T03:38:07.555Z,99143.48
2023-03-29T03:40:34.917Z,99140.06
2023-03-29T03:43:01.762Z,99140.54
2023-03-29T03:45:29.089Z,99148.63
2023-03-29T03:48:02.097Z,99151.48
2023-03-29T03:50:55.072Z,99158.77
2023-03-29T03:53:23.752Z,99158.25
2023-03-29T03:56:09.259Z,99157.92
2023-03-29T03:58:45.816Z,99160.14
2023-03-29T04:01:13.389Z,99158.41
2023-03-29T04:03:44.639Z,99154.61
2023-03-29T04:06:14.292Z,99158.77
2023-03-29T04:08:56.836Z,99157.19
2023-03-29T04:11:33.765Z,99157.71
2023-03-29T04:14:00.653Z,99155.98
2023-03-29T04:16:39.781Z,99155.98
2023-03-29T04:19:23.126Z,99151.73
2023-03-29T04:21:51.394Z,99153.04
2023-03-29T04:24:18.666Z,99151.73
2023-03-29T04:26:57.185Z,99150.84
2023-03-29T04:29:24.713Z,99152.67
2023-03-29T04:31:59.195Z,99151.55
2023-03-29T04:34:41.077Z,99146.63
2023-03-29T04:37:10.613Z,99140.81
2023-03-29T04:39:38.053Z,99138.75
2023-03-29T04:42:05.985Z,99143.88
2023-03-29T04:44:34.200Z,99141.69
2023-03-29T04:47:02.989Z,99141.94
2023-03-29T04:49:30.047Z,99146.27
2023-03-29T04:52:00.947Z,99147.15
2023-03-29T04:54:29.421Z,99155.08
2023-03-29T04:57:05.752Z,99152.89
2023-03-29T04:59:38.742Z,99151.04
2023-03-29T05:02:14.691Z,99149.98
2023-03-29T05:04:43.156Z,99147.67
2023-03-29T05:07:15.384Z,99151.86
2023-03-29T05:09:42.750Z,99150.39
2023-03-29T05:12:10.325Z,99153.65
2023-03-29T05:14:48.836Z,99148.33
2023-03-29T05:17:16.049Z,99145.59
2023-03-29T05:19:43.553Z,99143.63
2023-03-29T05:22:10.561Z,99142.16
2023-03-29T05:24:37.828Z,99141.26
2023-03-29T05:27:11.842Z,99142.67
2023-03-29T05:29:39.205Z,99142.36
2023-03-29T05:32:19.790Z,99143.36
2023-03-29T05:34:46.794Z,99139.98
2023-03-29T05:37:13.639Z,99135.83
2023-03-29T05:39:49.852Z,99132.64
2023-03-29T05:42:22.552Z,99125.86
2023-03-29T05:44:54.679Z,99127.06
2023-03-29T05:47:21.662Z,99130.33
2023-03-29T05:49:48.421Z,99132.06
2023-03-29T05:52:20.852Z,99135.34
2023-03-29T05:54:47.739Z,99132.55
2023-03-29T05:57:15.266Z,99132.99
2023-03-29T05:59:42.471Z,99128.52
2023-03-29T06:02:11.748Z,99125.76
2023-03-29T06:04:43.487Z,99130.93
2023-03-29T06:07:25.734Z,99126.66
2023-03-29T06:10:09.715Z,99127.63
2023-03-29T06:12:38.151Z,99129.46
2023-03-29T06:15:06.558Z,99125.93
2023-03-29T06:17:39.674Z,99138.08
2023-03-29T06:20:11.916Z,99134.69
2023-03-29T06:22:41.992Z,99139.29
2023-03-29T06:25:11.222Z,99144.80
2023-03-29T06:27:38.706Z,99138.27
2023-03-29T06:30:06.311Z,99138.64
2023-03-29T06:32:35.113Z,99134.73
2023-03-29T06:35:09.964Z,99138.93
2023-03-29T06:37:49.498Z,99140.98
2023-03-29T06:40:23.059Z,99140.04
2023-03-29T06:42:51.070Z,99133.66
2023-03-29T06:45:36.466Z,99135.35
2023-03-29T06:48:08.007Z,99137.27
2023-03-29T06:50:36.012Z,99139.14
2023-03-29T06:53:09.511Z,99140.08
2023-03-29T06:55:36.447Z,99142.69
2023-03-29T06:58:20.681Z,99138.00
2023-03-29T07:00:47.667Z,99134.91
2023-03-29T07:03:23.602Z,99133.58
2023-03-29T07:05:53.072Z,99128.33
2023-03-29T07:08:21.428Z,99129.55
2023-03-29T07:10:54.277Z,99124.77
2023-03-29T07:13:36.685Z,99126.55
2023-03-29T07:16:05.093Z,99127.18
2023-03-29T07:18:46.115Z,99123.62
2023-03-29T07:21:21.246Z,99124.85
2023-03-29T07:23:48.037Z,99125.73
2023-03-29T07:26:28.616Z,99120.86
2023-03-29T07:28:57.195Z,99117.73
2023-03-29T07:31:24.227Z,99118.39
2023-03-29T07:33:56.200Z,99121.10
2023-03-29T07:36:25.402Z,99122.91
2023-03-29T07:38:55.149Z,99121.09
2023-03-29T07:41:23.655Z,99120.57
2023-03-29T07:43:55.904Z,99117.02
2023-03-29T07:46:25.261Z,99107.77
2023-03-29T07:48:52.306Z,99108.73
2023-03-29T07:51:20.156Z,99109.67
2023-03-29T07:53:49.897Z,99106.96
2023-03-29T07:56:32.428Z,99106.34
2023-03-29T07:59:11.938Z,99106.45
2023-03-29T08:01:41.214Z,99104.61
2023-03-29T08:04:23.736Z,99101.87
2023-03-29T08:07:06.488Z,99106.61
2023-03-29T08:09:50.432Z,99107.16
2023-03-29T08:12:17.636Z,99106.73
2023-03-29T08:14:44.542Z,99104.21
2023-03-29T08:17:24.793Z,99098.21
2023-03-29T08:19:52.482Z,99097.05
2023-03-29T08:22:23.143Z,99095.78
2023-03-29T08:25:07.266Z,99094.49
2023-03-29T08:27:39.909Z,99090.48
2023-03-29T08:30:09.698Z,99090.91
2023-03-29T08:32:38.486Z,99087.73
2023-03-29T08:35:08.811Z,99085.27
2023-03-29T08:37:40.795Z,99088.52
2023-03-29T08:40:08.651Z,99081.80
2023-03-29T08:43:11.140Z,99077.64
2023-03-29T08:46:09.955Z,99081.52
2023-03-29T08:48:44.223Z,99077.94
2023-03-29T08:51:19.572Z,99072.00
2023-03-29T08:53:52.748Z,99066.38
2023-03-29T08:56:34.034Z,99070.95
2023-03-29T08:59:01.498Z,99070.27
2023-03-29T09:01:35.545Z,99068.84
2023-03-29T09:04:09.175Z,99069.70
2023-03-29T09:06:49.749Z,99063.45
2023-03-29T09:09:22.867Z,99061.94
2023-03-29T09:12:01.743Z,99055.67
2023-03-29T09:14:46.400Z,99059.51
2023-03-29T09:17:20.362Z,99055.98
2023-03-29T09:19:48.397Z,99053.05
2023-03-29T09:22:17.616Z,99048.67
2023-03-29T09:25:15.394Z,99049.29
2023-03-29T09:28:14.468Z,99039.49
2023-03-29T09:31:03.976Z,99037.63
2023-03-29T09:33:49.818Z,99034.23
2023-03-29T09:36:42.157Z,99035.85
2023-03-29T09:39:13.347Z,99031.09
2023-03-29T09:41:48.154Z,99026.45
2023-03-29T09:44:30.257Z,99030.04
2023-03-29T09:47:19.367Z,99029.59
2023-03-29T09:49:49.628Z,99030.17
2023-03-29T09:52:18.248Z,99026.39
2023-03-29T09:54:52.532Z,99025.35
2023-03-29T09:57:35.348Z,99019.42
2023-03-29T10:00:06.083Z,99021.98
2023-03-29T10:02:41.010Z,99018.15
2023-03-29T10:05:16.491Z,99019.23
2023-03-29T10:07:49.019Z,99018.10
2023-03-29T10:10:22.196Z,99018.25
2023-03-29T10:12:51.876Z,99014.12
2023-03-29T10:15:29.257Z,99013.30
2023-03-29T10:18:04.477Z,99009.30
2023-03-29T10:20:36.519Z,99006.61
2023-03-29T10:23:06.931Z,99004.30
2023-03-29T10:25:42.551Z,99001.19
2023-03-29T10:28:21.246Z,99001.21
2023-03-29T10:30:54.423Z,99004.38
2023-03-29T10:33:24.541Z,99005.35
2023-03-29T10:35:52.491Z,99004.61
2023-03-29T10:38:23.087Z,99006.16
2023-03-29T10:40:53.278Z,99002.54
2023-03-29T10:43:20.256Z,98997.52
2023-03-29T10:45:50.010Z,98990.34
2023-03-29T10:48:18.170Z,98989.89
2023-03-29T10:50:50.541Z,98985.90
2023-03-29T10:53:33.709Z,98984.73
2023-03-29T10:56:23.212Z,98987.68
2023-03-29T10:58:58.689Z,98979.92
2023-03-29T11:01:44.946Z,98980.17
2023-03-29T11:04:20.967Z,98979.84
2023-03-29T11:07:03.833Z,98973.92
2023-03-29T11:09:50.016Z,98969.77
2023-03-29T11:12:28.069Z,98962.02
2023-03-29T11:15:09.720Z,98960.85
2023-03-29T11:18:01.823Z,98958.35
2023-03-29T11:20:44.181Z,98950.08
2023-03-29T11:23:42.962Z,98947.15
2023-03-29T11:26:36.857Z,98943.58
2023-03-29T11:29:11.043Z,98943.44
2023-03-29T11:31:39.298Z,98938.30
2023-03-29T11:34:08.058Z,98934.80
2023-03-29T11:36:41.470Z,98924.25
2023-03-29T11:39:09.589Z,98924.55
2023-03-29T11:41:39.908Z,98926.42
2023-03-29T11:44:11.581Z,98922.16
2023-03-29T11:46:50.345Z,98919.09
2023-03-29T11:49:32.337Z,98914.08
2023-03-29T11:52:10.558Z,98900.63
2023-03-29T11:54:40.542Z,98903.88
2023-03-29T11:57:23.754Z,98899.55
2023-03-29T12:00:12.452Z,98896.02
2023-03-29T12:02:55.527Z,98888.92
2023-03-29T12:05:28.260Z,98881.46
2023-03-29T12:08:03.735Z,98881.13
2023-03-29T12:10:35.547Z,98876.92
2023-03-29T12:13:08.241Z,98870.08
2023-03-29T12:15:49.462Z,98869.45
2023-03-29T12:18:36.903Z,98864.54
2023-03-29T12:21:10.760Z,98857.23
2023-03-29T12:23:38.613Z,98854.95
2023-03-29T12:26:22.061Z,98856.30
2023-03-29T12:29:20.129Z,98854.00
2023-03-29T12:32:02.735Z,98853.71
2023-03-29T12:34:53.449Z,98848.94
2023-03-29T12:37:54.613Z,98842.89
2023-03-29T12:40:46.066Z,98837.63
2023-03-29T12:43:33.189Z,98835.98
2023-03-29T12:46:21.026Z,98828.37
2023-03-29T12:48:53.242Z,98831.69
2023-03-29T12:51:24.081Z,98834.37
2023-03-29T12:53:53.708Z,98829.10
2023-03-29T12:56:34.927Z,98826.67
2023-03-29T12:59:16.556Z,98832.14
2023-03-29T13:01:59.023Z,98821.42
2023-03-29T13:04:38.801Z,98823.09
2023-03-29T13:07:07.249Z,98816.05
2023-03-29T13:09:48.188Z,98819.55
2023-03-29T13:12:22.467Z,98820.45
2023-03-29T13:14:54.840Z,98816.32
2023-03-29T13:17:37.342Z,98815.34
2023-03-29T13:20:34.903Z,98816.09
2023-03-29T13:23:18.211Z,98812.88
2023-03-29T13:25:47.056Z,98805.30
2023-03-29T13:28:35.784Z,98808.85
2023-03-29T13:31:03.527Z,98809.34
2023-03-29T13:33:52.756Z,98808.80
2023-03-29T13:36:34.609Z,98803.46
2023-03-29T13:39:05.574Z,98796.70
2023-03-29T13:41:47.124Z,98791.46
2023-03-29T13:44:23.803Z,98794.02
2023-03-29T13:47:03.622Z,98792.98
2023-03-29T13:49:34.020Z,98787.50
2023-03-29T13:52:07.261Z,98782.00
2023-03-29T13:54:42.095Z,98780.41
2023-03-29T13:57:12.841Z,98780.57
2023-03-29T13:59:55.115Z,98776.64
2023-03-29T14:02:32.545Z,98783.77
2023-03-29T14:05:02.319Z,98777.16
2023-03-29T14:07:32.721Z,98774.76
2023-03-29T14:10:01.290Z,98776.70
2023-03-29T14:12:37.762Z,98776.75
2023-03-29T14:15:07.028Z,98777.81
2023-03-29T14:17:36.455Z,98774.91
2023-03-29T14:20:09.160Z,98766.25
2023-03-29T14:22:36.076Z,98770.99
2023-03-29T14:25:12.001Z,98769.81
2023-03-29T14:27:38.778Z,98768.98
2023-03-29T14:30:23.254Z,98769.58
2023-03-29T14:32:51.647Z,98759.69
2023-03-29T14:35:19.342Z,98762.98
2023-03-29T14:37:46.576Z,98764.83
2023-03-29T14:40:20.072Z,98757.21
2023-03-29T14:42:48.790Z,98759.67
2023-03-29T14:45:18.307Z,98759.42
2023-03-29T14:47:47.400Z,98759.64
2023-03-29T14:50:31.032Z,98753.16
2023-03-29T14:53:00.828Z,98749.54
2023-03-29T14:55:28.063Z,98746.02
2023-03-29T14:57:55.683Z,98748.13
2023-03-29T15:00:30.223Z,98745.02
2023-03-29T15:03:01.494Z,98743.13
2023-03-29T15:05:34.016Z,98742.90
2023-03-29T15:08:03.169Z,98735.86
2023-03-29T15:10:38.825Z,98737.84
2023-03-29T15:13:08.091Z,98732.73
2023-03-29T15:15:38.559Z,98734.42
2023-03-29T15:18:07.887Z,98733.15
2023-03-29T15:20:38.354Z,98736.08
2023-03-29T15:23:21.178Z,98730.82
2023-03-29T15:25:53.966Z,98724.70
2023-03-29T15:28:26.485Z,98724.14
2023-03-29T15:31:07.333Z,98720.59
2023-03-29T15:33:38.025Z,98718.92
2023-03-29T15:36:07.308Z,98719.41
2023-03-29T15:38:43.099Z,98715.70
2023-03-29T15:41:13.734Z,98711.60
2023-03-29T15:43:42.073Z,98710.39
2023-03-29T15:46:12.320Z,98711.94
2023-03-29T15:48:39.505Z,98714.21
2023-03-29T15:51:07.157Z,98716.90
2023-03-29T15:53:35.595Z,98711.80
2023-03-29T15:56:07.521Z,98712.44
2023-03-29T15:58:35.675Z,98710.39
2023-03-29T16:01:34.768Z,98709.85
2023-03-29T16:04:04.747Z,98701.77
2023-03-29T16:06:32.354Z,98700.40
2023-03-29T16:08:59.544Z,98696.02
2023-03-29T16:11:28.467Z,98701.84
2023-03-29T16:13:56.774Z,98709.58
2023-03-29T16:16:24.248Z,98709.11
2023-03-29T16:18:51.243Z,98710.56
2023-03-29T16:21:19.997Z,98707.98
2023-03-29T16:23:47.244Z,98700.39
2023-03-29T16:26:16.376Z,98699.16
2023-03-29T16:28:43.869Z,98700.20
2023-03-29T16:31:13.019Z,98698.98
2023-03-29T16:33:41.143Z,98698.98
2023-03-29T16:36:08.978Z,98690.00
2023-03-29T16:38:36.236Z,98687.38
2023-03-29T16:41:03.036Z,98691.13
2023-03-29T16:43:29.937Z,98687.27
2023-03-29T16:45:57.235Z,98687.84
2023-03-29T16:48:24.444Z,98690.85
2023-03-29T16:50:51.344Z,98690.76
2023-03-29T16:53:18.825Z,98696.19
2023-03-29T16:55:46.471Z,98690.90
2023-03-29T16:58:13.417Z,98694.63
2023-03-29T17:00:40.966Z,98692.92
2023-03-29T17:03:08.180Z,98691.23
2023-03-29T17:05:41.383Z,98691.29
2023-03-29T17:08:10.245Z,98693.73
2023-03-29T17:10:40.873Z,98697.13
2023-03-29T17:13:24.089Z,98705.91
2023-03-29T17:15:52.446Z,98704.17
2023-03-29T17:18:21.164Z,98707.00
2023-03-29T17:20:50.703Z,98701.27
2023-03-29T17:23:17.944Z,98702.48
2023-03-29T17:25:44.875Z,98705.26
2023-03-29T17:28:11.713Z,98708.17
2023-03-29T17:30:39.003Z,98704.78
2023-03-29T17:33:08.218Z,98706.73
2023-03-29T17:35:35.270Z,98709.27
2023-03-29T17:38:02.971Z,98717.05
2023-03-29T17:40:29.807Z,98722.58
2023-03-29T17:42:56.530Z,98723.56
2023-03-29T17:45:23.367Z,98727.89
2023-03-29T17:47:50.393Z,98730.71
2023-03-29T17:50:17.606Z,98733.66
2023-03-29T17:52:59.718Z,98737.87
2023-03-29T17:55:27.467Z,98741.92
2023-03-29T17:57:54.471Z,98745.44
2023-03-29T18:00:21.595Z,98748.45
2023-03-29T18:02:48.505Z,98748.31
2023-03-29T18:05:15.553Z,98742.85
2023-03-29T18:07:42.417Z,98742.29
2023-03-29T18:10:09.648Z,98744.89
2023-03-29T18:12:36.712Z,98742.59
2023-03-29T18:15:03.775Z,98742.64
2023-03-29T18:17:31.372Z,98744.99
2023-03-29T18:20:13.662Z,98746.17
2023-03-29T18:22:56.180Z,98747.98
2023-03-29T18:25:24.144Z,98752.53
2023-03-29T18:27:51.395Z,98761.39
2023-03-29T18:30:18.522Z,98760.82
2023-03-29T18:32:45.482Z,98763.73
2023-03-29T18:35:12.292Z,98767.70
2023-03-29T18:37:39.034Z,98765.64
2023-03-29T18:40:08.403Z,98759.98
2023-03-29T18:42:35.154Z,98761.43
2023-03-29T18:45:02.667Z,98759.07
2023-03-29T18:47:29.554Z,98750.55
2023-03-29T18:49:56.831Z,98748.52
2023-03-29T18:52:23.676Z,98748.58
2023-03-29T18:54:50.528Z,98742.16
2023-03-29T18:57:17.725Z,98742.92
2023-03-29T18:59:44.475Z,98741.29
2023-03-29T19:02:11.302Z,98739.58
2023-03-29T19:04:38.045Z,98741.55
2023-03-29T19:07:04.844Z,98745.35
2023-03-29T19:09:31.744Z,98740.74
2023-03-29T19:11:58.619Z,98736.19
2023-03-29T19:14:25.511Z,98736.11
2023-03-29T19:16:52.962Z,98733.08
2023-03-29T19:19:22.556Z,98733.75
2023-03-29T19:21:49.638Z,98735.60
2023-03-29T19:24:16.978Z,98736.63
2023-03-29T19:26:44.792Z,98735.60
2023-03-29T19:29:11.949Z,98741.98
2023-03-29T19:31:39.019Z,98746.75
2023-03-29T19:34:07.050Z,98753.58
2023-03-29T19:36:34.056Z,98754.92
2023-03-29T19:39:01.384Z,98757.29
2023-03-29T19:41:28.505Z,98757.80
2023-03-29T19:43:55.501Z,98763.52
2023-03-29T19:46:22.968Z,98760.36
2023-03-29T19:48:51.794Z,98754.45
2023-03-29T19:51:19.747Z,98749.21
2023-03-29T19:53:47.326Z,98748.33
2023-03-29T19:56:15.856Z,98747.90
2023-03-29T19:58:42.663Z,98751.12
2023-03-29T20:01:09.914Z,98754.48
2023-03-29T20:03:36.808Z,98756.77
2023-03-29T20:06:04.639Z,98751.99
2023-03-29T20:08:31.498Z,98749.59
2023-03-29T20:10:59.822Z,98745.95
2023-03-29T20:13:37.574Z,98746.02
2023-03-29T20:16:07.602Z,98743.09
2023-03-29T20:18:34.599Z,98738.45
2023-03-29T20:21:02.223Z,98739.27
2023-03-29T20:23:30.003Z,98738.61
2023-03-29T20:25:57.159Z,98733.88
2023-03-29T20:28:24.724Z,98733.13
2023-03-29T20:30:53.047Z,98725.64
2023-03-29T20:33:21.289Z,98725.54
2023-03-29T20:35:49.457Z,98726.93
2023-03-29T20:38:17.315Z,98724.38
2023-03-29T20:40:44.910Z,98724.33
2023-03-29T20:43:13.556Z,98720.90
2023-03-29T20:45:52.745Z,98721.84
2023-03-29T20:48:23.304Z,98723.10
2023-03-29T20:50:51.462Z,98717.36
2023-03-29T20:53:20.516Z,98713.15
2023-03-29T20:55:48.136Z,98705.37
2023-03-29T20:58:15.935Z,98704.88
2023-03-29T21:00:43.709Z,98702.23
2023-03-29T21:03:11.239Z,98698.00
2023-03-29T21:05:39.084Z,98691.80
2023-03-29T21:08:06.229Z,98690.96
2023-03-29T21:10:33.440Z,98692.00
2023-03-29T21:13:02.713Z,98700.77
2023-03-29T21:15:30.839Z,98698.48
2023-03-29T21:17:58.355Z,98692.52
2023-03-29T21:20:25.861Z,98690.78
2023-03-29T21:22:52.621Z,98690.52
2023-03-29T21:25:19.827Z,98687.65
2023-03-29T21:27:46.574Z,98687.82
2023-03-29T21:30:13.741Z,98682.64
2023-03-29T21:32:41.149Z,98677.59
2023-03-29T21:35:08.847Z,98676.20
2023-03-29T21:37:36.252Z,98676.65
2023-03-29T21:40:08.313Z,98676.57
2023-03-29T21:42:35.418Z,98677.71
2023-03-29T21:45:03.100Z,98675.77
2023-03-29T21:47:30.208Z,98677.35
2023-03-29T21:49:57.075Z,98675.23
2023-03-29T21:52:23.881Z,98675.54
2023-03-29T21:54:50.833Z,98680.08
2023-03-29T21:57:17.786Z,98676.26
2023-03-29T21:59:44.564Z,98674.70
2023-03-29T22:02:11.750Z,98672.16
2023-03-29T22:04:38.817Z,98671.63
2023-03-29T22:07:06.721Z,98674.89
2023-03-29T22:09:35.721Z,98670.20
2023-03-29T22:12:03.959Z,98666.51
2023-03-29T22:14:35.374Z,98664.13
2023-03-29T22:17:06.176Z,98663.40
2023-03-29T22:19:39.370Z,98658.19
2023-03-29T22:22:07.380Z,98660.23
2023-03-29T22:24:34.204Z,98657.75
2023-03-29T22:27:00.953Z,98650.94
2023-03-29T22:29:27.713Z,98651.07
2023-03-29T22:31:54.579Z,98648.59
2023-03-29T22:34:21.371Z,98649.30
2023-03-29T22:36:48.266Z,98646.53
2023-03-29T22:39:15.167Z,98647.92
2023-03-29T22:41:42.295Z,98645.23
2023-03-29T22:44:09.385Z,98647.45
2023-03-29T22:46:36.744Z,98645.44
2023-03-29T22:49:03.936Z,98647.46
2023-03-29T22:51:30.751Z,98647.75
2023-03-29T22:53:57.658Z,98644.01
2023-03-29T22:56:24.895Z,98642.07
2023-03-29T22:58:51.900Z,98642.10
2023-03-29T23:01:18.745Z,98640.13
2023-03-29T23:03:45.530Z,98634.40
2023-03-29T23:06:12.731Z,98630.84
2023-03-29T23:08:39.643Z,98624.30
2023-03-29T23:11:07.526Z,98629.31
2023-03-29T23:13:35.370Z,98626.05
2023-03-29T23:16:03.926Z,98620.13
2023-03-29T23:18:34.931Z,98620.30
2023-03-29T23:21:02.728Z,98620.19
2023-03-29T23:23:30.030Z,98619.13
2023-03-29T23:25:57.310Z,98618.96
2023-03-29T23:28:27.601Z,98616.81
2023-03-29T23:30:55.555Z,98615.60
2023-03-29T23:33:23.371Z,98617.64
2023-03-29T23:35:50.494Z,98613.27
2023-03-29T23:38:17.360Z,98613.02
2023-03-29T23:40:44.190Z,98611.91
2023-03-29T23:43:11.270Z,98611.23
2023-03-29T23:45:38.073Z,98609.88
2023-03-29T23:48:05.142Z,98605.98
2023-03-29T23:50:31.963Z,98601.31
2023-03-29T23:52:58.744Z,98601.77
2023-03-29T23:55:25.471Z,98597.75
2023-03-29T23:57:52.326Z,98597.11
